Danbury, New Hampshire
Current Conditions -  °F | °C
As of 12:35 AM on Monday 20 Oct 2014 (Local Time) from K1P1 Reporting Station
Overcast Overcast  
Wind Chill: 34°   Ceiling: 3900
Heat Index: 39°   Visibility: 10mi
Dew Point: 31°   Wind: 8mph
Humidity: 74%   Direction: 290°WNW
Pressure: 29.93"   Gusts: NA
Location:  43.53°N, 71.86°W
Report Text: K1P1 200435Z AUTO 29007KT 10SM BKN039 OVC047 04/00 A2993 RMK AO2 T00401003
Loading
Personal Weather Stations






























Interactive Weather Map New forecast layout! Learn more

10-Day Weather Forecast

Advertisements
Track Severe Weather on mobile